sensor_id;sensor_type;location;lat;lon;timestamp;pressure;altitude;pressure_sealevel;temperature;humidity
10946;BME280;5525;42.648;23.368;2023-01-15T00:01:25;95131.78;;;4.17;100.00
10946;BME280;5525;42.648;23.368;2023-01-15T00:03:55;95129.09;;;4.22;100.00
10946;BME280;5525;42.648;23.368;2023-01-15T00:06:23;95135.78;;;4.24;100.00
10946;BME280;5525;42.648;23.368;2023-01-15T00:08:50;95122.69;;;4.23;100.00
10946;BME280;5525;42.648;23.368;2023-01-15T00:11:18;95129.28;;;4.45;100.00
10946;BME280;5525;42.648;23.368;2023-01-15T00:13:45;95127.69;;;4.44;100.00
10946;BME280;5525;42.648;23.368;2023-01-15T00:16:14;95120.22;;;4.36;100.00
10946;BME280;5525;42.648;23.368;2023-01-15T00:18:42;95117.78;;;4.40;100.00
10946;BME280;5525;42.648;23.368;2023-01-15T00:21:11;95099.91;;;4.35;100.00
10946;BME280;5525;42.648;23.368;2023-01-15T00:23:38;95102.63;;;4.25;100.00
10946;BME280;5525;42.648;23.368;2023-01-15T00:26:27;95116.72;;;4.41;100.00
10946;BME280;5525;42.648;23.368;2023-01-15T00:29:12;95120.22;;;4.36;100.00
10946;BME280;5525;42.648;23.368;2023-01-15T00:31:38;95120.25;;;4.31;100.00
10946;BME280;5525;42.648;23.368;2023-01-15T00:34:05;95131.47;;;4.33;100.00
10946;BME280;5525;42.648;23.368;2023-01-15T00:36:34;95130.41;;;4.29;100.00
10946;BME280;5525;42.648;23.368;2023-01-15T00:39:02;95125.59;;;4.26;100.00
10946;BME280;5525;42.648;23.368;2023-01-15T00:41:29;95117.34;;;4.23;100.00
10946;BME280;5525;42.648;23.368;2023-01-15T00:43:56;95110.38;;;4.22;100.00
10946;BME280;5525;42.648;23.368;2023-01-15T00:46:22;95110.38;;;4.27;100.00
10946;BME280;5525;42.648;23.368;2023-01-15T00:48:49;95116.50;;;4.32;100.00
10946;BME280;5525;42.648;23.368;2023-01-15T00:51:16;95115.97;;;4.30;100.00
10946;BME280;5525;42.648;23.368;2023-01-15T00:53:46;95117.59;;;4.26;100.00
10946;BME280;5525;42.648;23.368;2023-01-15T00:56:13;95111.69;;;4.29;100.00
10946;BME280;5525;42.648;23.368;2023-01-15T00:58:40;95108.75;;;4.31;100.00
10946;BME280;5525;42.648;23.368;2023-01-15T01:01:07;95114.59;;;4.38;100.00
10946;BME280;5525;42.648;23.368;2023-01-15T01:03:33;95105.56;;;4.29;100.00
10946;BME280;5525;42.648;23.368;2023-01-15T01:06:01;95105.56;;;4.24;100.00
10946;BME280;5525;42.648;23.368;2023-01-15T01:08:28;95118.41;;;4.22;100.00
10946;BME280;5525;42.648;23.368;2023-01-15T01:11:04;95116.25;;;4.29;100.00
10946;BME280;5525;42.648;23.368;2023-01-15T01:13:31;95101.84;;;4.20;100.00
10946;BME280;5525;42.648;23.368;2023-01-15T01:15:58;95117.84;;;4.25;100.00
10946;BME280;5525;42.648;23.368;2023-01-15T01:18:25;95098.59;;;4.28;100.00
10946;BME280;5525;42.648;23.368;2023-01-15T01:20:52;95118.34;;;4.37;100.00
10946;BME280;5525;42.648;23.368;2023-01-15T01:23:21;95115.47;;;4.23;100.00
10946;BME280;5525;42.648;23.368;2023-01-15T01:25:48;95092.00;;;4.10;100.00
10946;BME280;5525;42.648;23.368;2023-01-15T01:28:16;95101.00;;;4.29;100.00
10946;BME280;5525;42.648;23.368;2023-01-15T01:30:43;95107.63;;;4.42;100.00
10946;BME280;5525;42.648;23.368;2023-01-15T01:33:09;95111.59;;;4.54;100.00
10946;BME280;5525;42.648;23.368;2023-01-15T01:35:36;95107.06;;;4.45;100.00
10946;BME280;5525;42.648;23.368;2023-01-15T01:38:03;95103.00;;;4.57;100.00
10946;BME280;5525;42.648;23.368;2023-01-15T01:40:30;95097.38;;;4.59;100.00
10946;BME280;5525;42.648;23.368;2023-01-15T01:42:57;95093.13;;;4.53;100.00
10946;BME280;5525;42.648;23.368;2023-01-15T01:45:30;95108.09;;;4.59;100.00
10946;BME280;5525;42.648;23.368;2023-01-15T01:48:00;95102.47;;;4.60;100.00
10946;BME280;5525;42.648;23.368;2023-01-15T01:50:29;95085.41;;;4.51;100.00
10946;BME280;5525;42.648;23.368;2023-01-15T01:52:59;95096.09;;;4.51;100.00
10946;BME280;5525;42.648;23.368;2023-01-15T01:55:29;95088.63;;;4.43;100.00
10946;BME280;5525;42.648;23.368;2023-01-15T01:58:01;95096.16;;;4.36;100.00
10946;BME280;5525;42.648;23.368;2023-01-15T02:00:31;95083.94;;;4.20;100.00
10946;BME280;5525;42.648;23.368;2023-01-15T02:02:59;95080.50;;;4.15;100.00
10946;BME280;5525;42.648;23.368;2023-01-15T02:05:30;95098.88;;;4.26;100.00
10946;BME280;5525;42.648;23.368;2023-01-15T02:07:57;95086.06;;;4.18;100.00
10946;BME280;5525;42.648;23.368;2023-01-15T02:10:23;95098.53;;;4.43;100.00
10946;BME280;5525;42.648;23.368;2023-01-15T02:12:54;95078.00;;;4.33;100.00
10946;BME280;5525;42.648;23.368;2023-01-15T02:15:28;95105.19;;;4.50;100.00
10946;BME280;5525;42.648;23.368;2023-01-15T02:18:05;95100.59;;;4.61;100.00
10946;BME280;5525;42.648;23.368;2023-01-15T02:20:37;95092.78;;;4.69;100.00
10946;BME280;5525;42.648;23.368;2023-01-15T02:23:19;95095.41;;;4.79;100.00
10946;BME280;5525;42.648;23.368;2023-01-15T02:26:00;95087.09;;;4.81;100.00
10946;BME280;5525;42.648;23.368;2023-01-15T02:28:31;95090.84;;;4.80;100.00
10946;BME280;5525;42.648;23.368;2023-01-15T02:31:03;95101.78;;;4.83;100.00
10946;BME280;5525;42.648;23.368;2023-01-15T02:33:35;95089.44;;;4.44;100.00
10946;BME280;5525;42.648;23.368;2023-01-15T02:36:04;95079.88;;;4.28;100.00
10946;BME280;5525;42.648;23.368;2023-01-15T02:38:37;95091.28;;;4.48;100.00
10946;BME280;5525;42.648;23.368;2023-01-15T02:41:07;95082.09;;;4.11;100.00
10946;BME280;5525;42.648;23.368;2023-01-15T02:43:44;95089.56;;;4.14;100.00
10946;BME280;5525;42.648;23.368;2023-01-15T02:46:13;95088.16;;;4.36;100.00
10946;BME280;5525;42.648;23.368;2023-01-15T02:48:42;95080.41;;;4.35;100.00
10946;BME280;5525;42.648;23.368;2023-01-15T02:51:14;95071.78;;;4.48;100.00
10946;BME280;5525;42.648;23.368;2023-01-15T02:53:43;95081.34;;;4.59;100.00
10946;BME280;5525;42.648;23.368;2023-01-15T02:56:14;95078.66;;;4.59;100.00
10946;BME280;5525;42.648;23.368;2023-01-15T02:58:46;95084.78;;;4.64;100.00
10946;BME280;5525;42.648;23.368;2023-01-15T03:01:15;95084.19;;;4.72;100.00
10946;BME280;5525;42.648;23.368;2023-01-15T03:03:48;95079.97;;;4.66;100.00
10946;BME280;5525;42.648;23.368;2023-01-15T03:06:22;95082.16;;;4.54;100.00
10946;BME280;5525;42.648;23.368;2023-01-15T03:08:53;95055.00;;;4.32;100.00
10946;BME280;5525;42.648;23.368;2023-01-15T03:11:20;95085.41;;;4.46;100.00
10946;BME280;5525;42.648;23.368;2023-01-15T03:13:50;95091.56;;;4.52;100.00
10946;BME280;5525;42.648;23.368;2023-01-15T03:16:27;95072.31;;;4.50;100.00
10946;BME280;5525;42.648;23.368;2023-01-15T03:19:03;95091.72;;;4.70;100.00
10946;BME280;5525;42.648;23.368;2023-01-15T03:21:38;95088.84;;;4.57;100.00
10946;BME280;5525;42.648;23.368;2023-01-15T03:24:09;95091.06;;;4.40;100.00
10946;BME280;5525;42.648;23.368;2023-01-15T03:26:36;95087.09;;;4.32;100.00
10946;BME280;5525;42.648;23.368;2023-01-15T03:29:06;95073.53;;;4.14;100.00
10946;BME280;5525;42.648;23.368;2023-01-15T03:31:34;95087.53;;;4.49;100.00
10946;BME280;5525;42.648;23.368;2023-01-15T03:34:02;95094.47;;;4.55;100.00
10946;BME280;5525;42.648;23.368;2023-01-15T03:36:31;95104.00;;;4.71;100.00
10946;BME280;5525;42.648;23.368;2023-01-15T03:38:58;95077.66;;;4.50;100.00
10946;BME280;5525;42.648;23.368;2023-01-15T03:41:29;95089.81;;;4.27;100.00
10946;BME280;5525;42.648;23.368;2023-01-15T03:44:09;95097.94;;;4.56;100.00
10946;BME280;5525;42.648;23.368;2023-01-15T03:46:49;95095.84;;;4.43;100.00
10946;BME280;5525;42.648;23.368;2023-01-15T03:49:25;95050.75;;;4.31;100.00
10946;BME280;5525;42.648;23.368;2023-01-15T03:52:00;95097.34;;;4.69;100.00
10946;BME280;5525;42.648;23.368;2023-01-15T03:54:36;95077.84;;;4.63;100.00
10946;BME280;5525;42.648;23.368;2023-01-15T03:57:12;95094.84;;;4.82;100.00
10946;BME280;5525;42.648;23.368;2023-01-15T03:59:46;95093.72;;;4.93;100.00
10946;BME280;5525;42.648;23.368;2023-01-15T04:02:16;95096.69;;;4.87;100.00
10946;BME280;5525;42.648;23.368;2023-01-15T04:04:45;95097.75;;;4.86;100.00
10946;BME280;5525;42.648;23.368;2023-01-15T04:07:13;95078.75;;;4.87;100.00
10946;BME280;5525;42.648;23.368;2023-01-15T04:09:40;95087.81;;;4.96;100.00
10946;BME280;5525;42.648;23.368;2023-01-15T04:12:07;95085.06;;;5.01;100.00
10946;BME280;5525;42.648;23.368;2023-01-15T04:14:34;95072.53;;;4.97;100.00
10946;BME280;5525;42.648;23.368;2023-01-15T04:17:03;95076.75;;;4.64;100.00
10946;BME280;5525;42.648;23.368;2023-01-15T04:19:29;95075.88;;;4.79;100.00
10946;BME280;5525;42.648;23.368;2023-01-15T04:21:56;95080.38;;;4.83;100.00
10946;BME280;5525;42.648;23.368;2023-01-15T04:24:24;95072.09;;;4.80;100.00
10946;BME280;5525;42.648;23.368;2023-01-15T04:26:51;95083.28;;;4.92;100.00
10946;BME280;5525;42.648;23.368;2023-01-15T04:29:17;95091.38;;;4.77;100.00
10946;BME280;5525;42.648;23.368;2023-01-15T04:31:44;95091.34;;;4.87;100.00
10946;BME280;5525;42.648;23.368;2023-01-15T04:34:12;95092.22;;;4.72;100.00
10946;BME280;5525;42.648;23.368;2023-01-15T04:36:39;95082.97;;;4.55;100.00
10946;BME280;5525;42.648;23.368;2023-01-15T04:39:06;95094.13;;;4.72;100.00
10946;BME280;5525;42.648;23.368;2023-01-15T04:41:33;95085.59;;;4.60;100.00
10946;BME280;5525;42.648;23.368;2023-01-15T04:44:17;95095.00;;;4.52;100.00
10946;BME280;5525;42.648;23.368;2023-01-15T04:46:44;95102.63;;;4.20;100.00
10946;BME280;5525;42.648;23.368;2023-01-15T04:49:15;95107.69;;;4.32;100.00
10946;BME280;5525;42.648;23.368;2023-01-15T04:51:42;95095.44;;;4.16;100.00
10946;BME280;5525;42.648;23.368;2023-01-15T04:54:11;95105.03;;;4.27;100.00
10946;BME280;5525;42.648;23.368;2023-01-15T04:56:40;95105.28;;;4.30;100.00
10946;BME280;5525;42.648;23.368;2023-01-15T04:59:08;95092.47;;;4.27;100.00
10946;BME280;5525;42.648;23.368;2023-01-15T05:01:35;95100.63;;;4.51;100.00
10946;BME280;5525;42.648;23.368;2023-01-15T05:04:02;95099.50;;;4.62;100.00
10946;BME280;5525;42.648;23.368;2023-01-15T05:06:30;95096.84;;;4.57;100.00
10946;BME280;5525;42.648;23.368;2023-01-15T05:08:57;95099.78;;;4.60;100.00
10946;BME280;5525;42.648;23.368;2023-01-15T05:11:25;95100.63;;;4.56;100.00
10946;BME280;5525;42.648;23.368;2023-01-15T05:13:52;95088.28;;;4.60;100.00
10946;BME280;5525;42.648;23.368;2023-01-15T05:16:21;95078.81;;;4.77;100.00
10946;BME280;5525;42.648;23.368;2023-01-15T05:18:49;95091.06;;;4.88;100.00
10946;BME280;5525;42.648;23.368;2023-01-15T05:21:18;95102.53;;;4.89;100.00
10946;BME280;5525;42.648;23.368;2023-01-15T05:23:48;95098.25;;;4.93;100.00
10946;BME280;5525;42.648;23.368;2023-01-15T05:26:15;95084.19;;;4.77;100.00
10946;BME280;5525;42.648;23.368;2023-01-15T05:28:43;95105.56;;;4.77;100.00
10946;BME280;5525;42.648;23.368;2023-01-15T05:31:11;95103.16;;;4.81;100.00
10946;BME280;5525;42.648;23.368;2023-01-15T05:33:39;95095.13;;;4.81;100.00
10946;BME280;5525;42.648;23.368;2023-01-15T05:36:08;95103.94;;;4.81;100.00
10946;BME280;5525;42.648;23.368;2023-01-15T05:38:36;95089.44;;;4.49;100.00
10946;BME280;5525;42.648;23.368;2023-01-15T05:41:06;95100.06;;;4.59;100.00
10946;BME280;5525;42.648;23.368;2023-01-15T05:43:53;95071.28;;;4.41;100.00
10946;BME280;5525;42.648;23.368;2023-01-15T05:46:20;95096.34;;;4.55;100.00
10946;BME280;5525;42.648;23.368;2023-01-15T05:48:48;95099.03;;;4.50;100.00
10946;BME280;5525;42.648;23.368;2023-01-15T05:51:15;95106.41;;;4.14;100.00
10946;BME280;5525;42.648;23.368;2023-01-15T05:53:42;95087.97;;;4.13;100.00
10946;BME280;5525;42.648;23.368;2023-01-15T05:56:10;95109.09;;;4.14;100.00
10946;BME280;5525;42.648;23.368;2023-01-15T05:58:37;95117.91;;;4.15;100.00
10946;BME280;5525;42.648;23.368;2023-01-15T06:01:07;95094.44;;;3.97;100.00
10946;BME280;5525;42.648;23.368;2023-01-15T06:03:35;95119.50;;;4.21;100.00
10946;BME280;5525;42.648;23.368;2023-01-15T06:06:02;95120.84;;;4.13;100.00
10946;BME280;5525;42.648;23.368;2023-01-15T06:08:29;95120.59;;;4.10;100.00
10946;BME280;5525;42.648;23.368;2023-01-15T06:10:56;95111.25;;;4.07;100.00
10946;BME280;5525;42.648;23.368;2023-01-15T06:13:24;95107.97;;;4.30;100.00
10946;BME280;5525;42.648;23.368;2023-01-15T06:15:51;95106.31;;;4.44;100.00
10946;BME280;5525;42.648;23.368;2023-01-15T06:18:18;95105.69;;;4.52;100.00
10946;BME280;5525;42.648;23.368;2023-01-15T06:20:45;95113.13;;;4.70;100.00
10946;BME280;5525;42.648;23.368;2023-01-15T06:23:12;95101.06;;;4.73;100.00
10946;BME280;5525;42.648;23.368;2023-01-15T06:25:38;95043.28;;;4.28;100.00
10946;BME280;5525;42.648;23.368;2023-01-15T06:28:06;95098.47;;;4.58;100.00
10946;BME280;5525;42.648;23.368;2023-01-15T06:30:37;95102.72;;;4.59;100.00
10946;BME280;5525;42.648;23.368;2023-01-15T06:33:04;95105.03;;;4.75;100.00
10946;BME280;5525;42.648;23.368;2023-01-15T06:35:31;95105.56;;;4.77;100.00
10946;BME280;5525;42.648;23.368;2023-01-15T06:37:58;95106.94;;;4.75;100.00
10946;BME280;5525;42.648;23.368;2023-01-15T06:40:25;95106.13;;;4.74;100.00
10946;BME280;5525;42.648;23.368;2023-01-15T06:42:56;95091.91;;;4.79;100.00
10946;BME280;5525;42.648;23.368;2023-01-15T06:45:41;95110.31;;;4.90;100.00
10946;BME280;5525;42.648;23.368;2023-01-15T06:48:26;95109.28;;;4.81;100.00
10946;BME280;5525;42.648;23.368;2023-01-15T06:50:53;95108.53;;;4.76;100.00
10946;BME280;5525;42.648;23.368;2023-01-15T06:53:20;95104.75;;;4.82;100.00
10946;BME280;5525;42.648;23.368;2023-01-15T06:55:47;95101.66;;;5.03;100.00
10946;BME280;5525;42.648;23.368;2023-01-15T06:58:14;95100.50;;;5.14;100.00
10946;BME280;5525;42.648;23.368;2023-01-15T07:00:42;95094.00;;;5.26;100.00
10946;BME280;5525;42.648;23.368;2023-01-15T07:03:11;95112.38;;;5.37;100.00
10946;BME280;5525;42.648;23.368;2023-01-15T07:05:38;95107.50;;;5.44;100.00
10946;BME280;5525;42.648;23.368;2023-01-15T07:08:05;95102.03;;;5.26;100.00
10946;BME280;5525;42.648;23.368;2023-01-15T07:10:33;95087.28;;;5.28;100.00
10946;BME280;5525;42.648;23.368;2023-01-15T07:13:00;95089.19;;;5.56;100.00
10946;BME280;5525;42.648;23.368;2023-01-15T07:15:27;95107.53;;;5.68;100.00
10946;BME280;5525;42.648;23.368;2023-01-15T07:17:56;95105.44;;;5.65;100.00
10946;BME280;5525;42.648;23.368;2023-01-15T07:20:23;95084.97;;;5.74;100.00
10946;BME280;5525;42.648;23.368;2023-01-15T07:22:50;95088.72;;;5.78;100.00
10946;BME280;5525;42.648;23.368;2023-01-15T07:25:17;95105.19;;;5.95;100.00
10946;BME280;5525;42.648;23.368;2023-01-15T07:27:45;95104.81;;;6.01;100.00
10946;BME280;5525;42.648;23.368;2023-01-15T07:30:13;95104.97;;;6.15;100.00
10946;BME280;5525;42.648;23.368;2023-01-15T07:32:40;95114.06;;;6.14;100.00
10946;BME280;5525;42.648;23.368;2023-01-15T07:35:08;95114.22;;;6.46;100.00
10946;BME280;5525;42.648;23.368;2023-01-15T07:37:35;95100.94;;;6.12;100.00
10946;BME280;5525;42.648;23.368;2023-01-15T07:40:05;95108.94;;;5.94;100.00
10946;BME280;5525;42.648;23.368;2023-01-15T07:42:32;95102.31;;;5.86;100.00
10946;BME280;5525;42.648;23.368;2023-01-15T07:45:22;95112.91;;;5.68;100.00
10946;BME280;5525;42.648;23.368;2023-01-15T07:48:10;95119.06;;;5.97;100.00
10946;BME280;5525;42.648;23.368;2023-01-15T07:50:56;95111.78;;;6.49;100.00
10946;BME280;5525;42.648;23.368;2023-01-15T07:53:23;95110.72;;;6.03;100.00
10946;BME280;5525;42.648;23.368;2023-01-15T07:55:50;95110.41;;;6.05;100.00
10946;BME280;5525;42.648;23.368;2023-01-15T07:58:20;95095.31;;;6.37;100.00
10946;BME280;5525;42.648;23.368;2023-01-15T08:00:47;95106.31;;;6.78;100.00
10946;BME280;5525;42.648;23.368;2023-01-15T08:03:16;95115.81;;;7.08;100.00
10946;BME280;5525;42.648;23.368;2023-01-15T08:05:48;95100.66;;;6.14;100.00
10946;BME280;5525;42.648;23.368;2023-01-15T08:08:16;95099.75;;;6.23;100.00
10946;BME280;5525;42.648;23.368;2023-01-15T08:10:46;95112.06;;;6.48;100.00
10946;BME280;5525;42.648;23.368;2023-01-15T08:13:27;95114.81;;;6.43;100.00
10946;BME280;5525;42.648;23.368;2023-01-15T08:16:15;95121.84;;;6.15;100.00
10946;BME280;5525;42.648;23.368;2023-01-15T08:18:43;95090.16;;;5.65;100.00
10946;BME280;5525;42.648;23.368;2023-01-15T08:21:14;95114.03;;;6.19;100.00
10946;BME280;5525;42.648;23.368;2023-01-15T08:23:43;95115.97;;;6.13;100.00
10946;BME280;5525;42.648;23.368;2023-01-15T08:26:14;95125.00;;;6.22;100.00
10946;BME280;5525;42.648;23.368;2023-01-15T08:28:43;95112.47;;;6.78;100.00
10946;BME280;5525;42.648;23.368;2023-01-15T08:31:13;95121.13;;;6.52;100.00
10946;BME280;5525;42.648;23.368;2023-01-15T08:33:40;95134.16;;;6.40;100.00
10946;BME280;5525;42.648;23.368;2023-01-15T08:36:07;95133.16;;;6.78;100.00
10946;BME280;5525;42.648;23.368;2023-01-15T08:38:34;95134.63;;;7.26;100.00
10946;BME280;5525;42.648;23.368;2023-01-15T08:41:05;95121.41;;;7.30;100.00
10946;BME280;5525;42.648;23.368;2023-01-15T08:43:32;95128.13;;;7.46;100.00
10946;BME280;5525;42.648;23.368;2023-01-15T08:46:01;95126.84;;;7.43;100.00
10946;BME280;5525;42.648;23.368;2023-01-15T08:48:29;95119.22;;;7.50;100.00
10946;BME280;5525;42.648;23.368;2023-01-15T08:50:57;95122.72;;;7.14;100.00
10946;BME280;5525;42.648;23.368;2023-01-15T08:53:26;95109.88;;;7.61;100.00
10946;BME280;5525;42.648;23.368;2023-01-15T08:55:54;95122.00;;;7.91;100.00
10946;BME280;5525;42.648;23.368;2023-01-15T08:58:26;95116.69;;;7.03;100.00
10946;BME280;5525;42.648;23.368;2023-01-15T09:00:53;95126.53;;;7.45;100.00
10946;BME280;5525;42.648;23.368;2023-01-15T09:03:21;95121.72;;;7.60;100.00
10946;BME280;5525;42.648;23.368;2023-01-15T09:05:48;95117.22;;;7.88;100.00
10946;BME280;5525;42.648;23.368;2023-01-15T09:08:14;95110.66;;;7.94;100.00
10946;BME280;5525;42.648;23.368;2023-01-15T09:10:41;95112.09;;;8.18;100.00
10946;BME280;5525;42.648;23.368;2023-01-15T09:13:18;95104.28;;;7.90;100.00
10946;BME280;5525;42.648;23.368;2023-01-15T09:15:47;95116.63;;;7.91;100.00
10946;BME280;5525;42.648;23.368;2023-01-15T09:18:16;95107.56;;;7.87;100.00
10946;BME280;5525;42.648;23.368;2023-01-15T09:20:48;95111.31;;;7.72;100.00
10946;BME280;5525;42.648;23.368;2023-01-15T09:23:15;95092.41;;;7.77;100.00
10946;BME280;5525;42.648;23.368;2023-01-15T09:25:50;95104.66;;;7.01;100.00
10946;BME280;5525;42.648;23.368;2023-01-15T09:28:17;95111.97;;;7.32;100.00
10946;BME280;5525;42.648;23.368;2023-01-15T09:30:44;95098.16;;;7.71;100.00
10946;BME280;5525;42.648;23.368;2023-01-15T09:33:12;95103.97;;;7.78;100.00
10946;BME280;5525;42.648;23.368;2023-01-15T09:35:39;95076.59;;;7.44;100.00
10946;BME280;5525;42.648;23.368;2023-01-15T09:38:06;95087.28;;;8.08;100.00
10946;BME280;5525;42.648;23.368;2023-01-15T09:40:45;95091.00;;;8.25;98.16
10946;BME280;5525;42.648;23.368;2023-01-15T09:43:23;95081.75;;;8.31;99.97
10946;BME280;5525;42.648;23.368;2023-01-15T09:45:56;95080.31;;;8.75;95.90
10946;BME280;5525;42.648;23.368;2023-01-15T09:48:32;95083.47;;;8.77;96.00
10946;BME280;5525;42.648;23.368;2023-01-15T09:51:11;95076.47;;;8.89;94.80
10946;BME280;5525;42.648;23.368;2023-01-15T09:54:04;95068.09;;;8.91;93.82
10946;BME280;5525;42.648;23.368;2023-01-15T09:56:37;95064.28;;;9.05;92.71
10946;BME280;5525;42.648;23.368;2023-01-15T09:59:11;95061.78;;;9.31;91.31
10946;BME280;5525;42.648;23.368;2023-01-15T10:01:42;95050.19;;;9.08;91.31
10946;BME280;5525;42.648;23.368;2023-01-15T10:04:15;95046.50;;;9.04;91.05
10946;BME280;5525;42.648;23.368;2023-01-15T10:06:52;95043.72;;;9.09;91.28
10946;BME280;5525;42.648;23.368;2023-01-15T10:09:27;95036.03;;;9.03;92.94
10946;BME280;5525;42.648;23.368;2023-01-15T10:11:58;95031.75;;;9.02;93.13
10946;BME280;5525;42.648;23.368;2023-01-15T10:14:49;95022.25;;;9.18;91.84
10946;BME280;5525;42.648;23.368;2023-01-15T10:17:24;95021.94;;;9.19;90.34
10946;BME280;5525;42.648;23.368;2023-01-15T10:19:54;95015.94;;;9.22;92.08
10946;BME280;5525;42.648;23.368;2023-01-15T10:25:14;95012.78;;;9.29;90.93
10946;BME280;5525;42.648;23.368;2023-01-15T10:27:45;95002.25;;;9.41;91.21
10946;BME280;5525;42.648;23.368;2023-01-15T10:30:16;95008.00;;;9.48;89.05
10946;BME280;5525;42.648;23.368;2023-01-15T10:32:50;95003.53;;;9.43;88.72
10946;BME280;5525;42.648;23.368;2023-01-15T10:35:28;95002.19;;;9.32;86.31
10946;BME280;5525;42.648;23.368;2023-01-15T10:38:00;94997.03;;;9.44;85.90
10946;BME280;5525;42.648;23.368;2023-01-15T10:40:43;94982.97;;;9.25;88.39
10946;BME280;5525;42.648;23.368;2023-01-15T10:43:19;94981.13;;;9.65;82.18
10946;BME280;5525;42.648;23.368;2023-01-15T10:45:50;94977.09;;;9.01;86.27
10946;BME280;5525;42.648;23.368;2023-01-15T10:48:27;94961.25;;;9.52;85.25
10946;BME280;5525;42.648;23.368;2023-01-15T10:51:00;94973.31;;;9.85;83.86
10946;BME280;5525;42.648;23.368;2023-01-15T10:53:30;94962.72;;;9.97;84.62
10946;BME280;5525;42.648;23.368;2023-01-15T10:56:06;94958.22;;;9.84;86.80
10946;BME280;5525;42.648;23.368;2023-01-15T10:58:40;94963.47;;;10.29;83.36
10946;BME280;5525;42.648;23.368;2023-01-15T11:01:11;94953.03;;;10.53;81.80
10946;BME280;5525;42.648;23.368;2023-01-15T11:03:42;94953.53;;;10.97;78.74
10946;BME280;5525;42.648;23.368;2023-01-15T11:06:13;94942.22;;;10.78;76.21
10946;BME280;5525;42.648;23.368;2023-01-15T11:08:43;94944.28;;;10.39;79.20
10946;BME280;5525;42.648;23.368;2023-01-15T11:11:23;94938.25;;;10.67;78.15
10946;BME280;5525;42.648;23.368;2023-01-15T11:14:18;94940.78;;;10.38;79.87
10946;BME280;5525;42.648;23.368;2023-01-15T11:17:08;94935.06;;;10.40;79.26
10946;BME280;5525;42.648;23.368;2023-01-15T11:19:58;94927.47;;;10.76;76.96
10946;BME280;5525;42.648;23.368;2023-01-15T11:22:26;94926.19;;;10.73;74.32
10946;BME280;5525;42.648;23.368;2023-01-15T11:24:56;94910.59;;;10.19;76.39
10946;BME280;5525;42.648;23.368;2023-01-15T11:27:28;94920.78;;;10.39;77.70
10946;BME280;5525;42.648;23.368;2023-01-15T11:30:00;94904.88;;;10.20;77.10
10946;BME280;5525;42.648;23.368;2023-01-15T11:32:29;94915.50;;;10.08;77.84
10946;BME280;5525;42.648;23.368;2023-01-15T11:34:57;94911.63;;;10.01;78.40
10946;BME280;5525;42.648;23.368;2023-01-15T11:37:29;94900.97;;;9.87;80.43
10946;BME280;5525;42.648;23.368;2023-01-15T11:40:00;94900.59;;;9.33;83.85
10946;BME280;5525;42.648;23.368;2023-01-15T11:42:32;94892.63;;;8.97;87.15
10946;BME280;5525;42.648;23.368;2023-01-15T11:45:20;94895.13;;;8.94;91.10
10946;BME280;5525;42.648;23.368;2023-01-15T11:48:14;94848.19;;;8.20;95.42
10946;BME280;5525;42.648;23.368;2023-01-15T11:51:03;94877.00;;;8.19;99.43
10946;BME280;5525;42.648;23.368;2023-01-15T11:53:37;94878.69;;;8.15;100.00
10946;BME280;5525;42.648;23.368;2023-01-15T11:56:12;94866.34;;;8.14;100.00
10946;BME280;5525;42.648;23.368;2023-01-15T11:58:47;94870.72;;;8.10;100.00
10946;BME280;5525;42.648;23.368;2023-01-15T12:01:22;94846.69;;;7.78;100.00
10946;BME280;5525;42.648;23.368;2023-01-15T12:03:51;94871.16;;;7.90;100.00
10946;BME280;5525;42.648;23.368;2023-01-15T12:06:21;94871.47;;;8.02;100.00
10946;BME280;5525;42.648;23.368;2023-01-15T12:09:00;94862.28;;;8.03;100.00
10946;BME280;5525;42.648;23.368;2023-01-15T12:11:55;94871.97;;;7.91;100.00
10946;BME280;5525;42.648;23.368;2023-01-15T12:14:52;94807.56;;;7.50;100.00
10946;BME280;5525;42.648;23.368;2023-01-15T12:17:31;94833.75;;;7.80;100.00
10946;BME280;5525;42.648;23.368;2023-01-15T12:20:10;94853.97;;;8.13;100.00
10946;BME280;5525;42.648;23.368;2023-01-15T12:22:55;94847.44;;;8.41;100.00
10946;BME280;5525;42.648;23.368;2023-01-15T12:25:33;94824.41;;;8.27;100.00
10946;BME280;5525;42.648;23.368;2023-01-15T12:28:05;94823.28;;;8.28;100.00
10946;BME280;5525;42.648;23.368;2023-01-15T12:30:53;94844.25;;;8.39;100.00
10946;BME280;5525;42.648;23.368;2023-01-15T12:33:40;94838.69;;;8.58;100.00
10946;BME280;5525;42.648;23.368;2023-01-15T12:36:12;94802.44;;;8.55;100.00
10946;BME280;5525;42.648;23.368;2023-01-15T12:38:52;94825.00;;;8.68;100.00
10946;BME280;5525;42.648;23.368;2023-01-15T12:41:25;94828.28;;;8.87;100.00
10946;BME280;5525;42.648;23.368;2023-01-15T12:44:20;94794.97;;;8.83;98.12
10946;BME280;5525;42.648;23.368;2023-01-15T12:47:10;94810.41;;;8.91;98.39
10946;BME280;5525;42.648;23.368;2023-01-15T12:49:47;94823.44;;;9.06;98.44
10946;BME280;5525;42.648;23.368;2023-01-15T12:52:20;94830.56;;;9.02;96.76
10946;BME280;5525;42.648;23.368;2023-01-15T12:55:02;94818.06;;;8.76;98.71
10946;BME280;5525;42.648;23.368;2023-01-15T12:57:36;94795.25;;;8.07;100.00
10946;BME280;5525;42.648;23.368;2023-01-15T13:00:14;94819.38;;;7.98;100.00
10946;BME280;5525;42.648;23.368;2023-01-15T13:02:57;94819.00;;;7.91;100.00
10946;BME280;5525;42.648;23.368;2023-01-15T13:05:35;94786.81;;;7.64;100.00
10946;BME280;5525;42.648;23.368;2023-01-15T13:08:13;94812.88;;;7.77;100.00
10946;BME280;5525;42.648;23.368;2023-01-15T13:10:48;94775.50;;;7.54;100.00
10946;BME280;5525;42.648;23.368;2023-01-15T13:13:17;94790.91;;;7.97;100.00
10946;BME280;5525;42.648;23.368;2023-01-15T13:16:02;94805.84;;;8.47;100.00
10946;BME280;5525;42.648;23.368;2023-01-15T13:18:39;94798.69;;;8.21;100.00
10946;BME280;5525;42.648;23.368;2023-01-15T13:21:15;94783.38;;;8.43;100.00
10946;BME280;5525;42.648;23.368;2023-01-15T13:24:12;94803.19;;;8.25;100.00
10946;BME280;5525;42.648;23.368;2023-01-15T13:26:59;94790.75;;;8.16;100.00
10946;BME280;5525;42.648;23.368;2023-01-15T13:29:38;94771.25;;;9.33;100.00